sensor_id;sensor_type;location;lat;lon;timestamp;P1;durP1;ratioP1;P2;durP2;ratioP2
56911;SDS011;42800;53.928;27.662;2023-02-28T00:00:33;7.60;;;3.53;;
56911;SDS011;42800;53.928;27.662;2023-02-28T00:03:00;7.82;;;4.40;;
56911;SDS011;42800;53.928;27.662;2023-02-28T00:05:27;10.45;;;5.25;;
56911;SDS011;42800;53.928;27.662;2023-02-28T00:07:54;8.35;;;4.43;;
56911;SDS011;42800;53.928;27.662;2023-02-28T00:10:22;10.18;;;4.60;;
56911;SDS011;42800;53.928;27.662;2023-02-28T00:12:52;6.78;;;4.00;;
56911;SDS011;42800;53.928;27.662;2023-02-28T00:15:19;6.50;;;3.80;;
56911;SDS011;42800;53.928;27.662;2023-02-28T00:17:46;5.18;;;3.42;;
56911;SDS011;42800;53.928;27.662;2023-02-28T00:20:12;8.60;;;4.80;;
56911;SDS011;42800;53.928;27.662;2023-02-28T00:22:40;9.05;;;4.32;;
56911;SDS011;42800;53.928;27.662;2023-02-28T00:25:07;9.98;;;4.15;;
56911;SDS011;42800;53.928;27.662;2023-02-28T00:27:36;9.25;;;4.05;;
56911;SDS011;42800;53.928;27.662;2023-02-28T00:30:04;8.55;;;4.97;;
56911;SDS011;42800;53.928;27.662;2023-02-28T00:32:32;7.85;;;4.63;;
56911;SDS011;42800;53.928;27.662;2023-02-28T00:34:59;9.60;;;4.65;;
56911;SDS011;42800;53.928;27.662;2023-02-28T00:37:25;7.03;;;4.05;;
56911;SDS011;42800;53.928;27.662;2023-02-28T00:39:52;8.45;;;4.88;;
56911;SDS011;42800;53.928;27.662;2023-02-28T00:42:18;11.13;;;5.22;;
56911;SDS011;42800;53.928;27.662;2023-02-28T00:44:45;7.55;;;4.78;;
56911;SDS011;42800;53.928;27.662;2023-02-28T00:47:11;7.45;;;4.65;;
56911;SDS011;42800;53.928;27.662;2023-02-28T00:49:37;5.05;;;3.17;;
56911;SDS011;42800;53.928;27.662;2023-02-28T00:52:03;8.85;;;4.57;;
56911;SDS011;42800;53.928;27.662;2023-02-28T00:54:30;4.72;;;2.85;;
56911;SDS011;42800;53.928;27.662;2023-02-28T00:56:56;5.47;;;3.72;;
56911;SDS011;42800;53.928;27.662;2023-02-28T00:59:22;10.00;;;5.05;;
56911;SDS011;42800;53.928;27.662;2023-02-28T01:01:49;10.73;;;4.22;;
56911;SDS011;42800;53.928;27.662;2023-02-28T01:04:15;7.38;;;4.05;;
56911;SDS011;42800;53.928;27.662;2023-02-28T01:06:41;8.80;;;4.20;;
56911;SDS011;42800;53.928;27.662;2023-02-28T01:09:08;10.98;;;4.47;;
56911;SDS011;42800;53.928;27.662;2023-02-28T01:11:35;8.45;;;4.75;;
56911;SDS011;42800;53.928;27.662;2023-02-28T01:14:01;12.18;;;4.82;;
56911;SDS011;42800;53.928;27.662;2023-02-28T01:16:29;10.80;;;5.00;;
56911;SDS011;42800;53.928;27.662;2023-02-28T01:18:56;10.70;;;5.10;;
56911;SDS011;42800;53.928;27.662;2023-02-28T01:21:23;11.65;;;5.00;;
56911;SDS011;42800;53.928;27.662;2023-02-28T01:23:50;13.27;;;5.32;;
56911;SDS011;42800;53.928;27.662;2023-02-28T01:26:17;9.80;;;5.72;;
56911;SDS011;42800;53.928;27.662;2023-02-28T01:28:44;10.65;;;5.47;;
56911;SDS011;42800;53.928;27.662;2023-02-28T01:31:11;8.75;;;4.45;;
56911;SDS011;42800;53.928;27.662;2023-02-28T01:33:38;11.57;;;5.90;;
56911;SDS011;42800;53.928;27.662;2023-02-28T01:36:06;14.43;;;6.05;;
56911;SDS011;42800;53.928;27.662;2023-02-28T01:38:34;15.00;;;5.20;;
56911;SDS011;42800;53.928;27.662;2023-02-28T01:41:01;15.35;;;5.60;;
56911;SDS011;42800;53.928;27.662;2023-02-28T01:43:28;17.75;;;6.57;;
56911;SDS011;42800;53.928;27.662;2023-02-28T01:45:55;14.48;;;6.35;;
56911;SDS011;42800;53.928;27.662;2023-02-28T01:48:24;10.32;;;5.22;;
56911;SDS011;42800;53.928;27.662;2023-02-28T01:50:53;13.65;;;6.07;;
56911;SDS011;42800;53.928;27.662;2023-02-28T01:53:23;14.32;;;5.80;;
56911;SDS011;42800;53.928;27.662;2023-02-28T01:55:55;14.48;;;6.35;;
56911;SDS011;42800;53.928;27.662;2023-02-28T01:58:23;12.48;;;6.28;;
56911;SDS011;42800;53.928;27.662;2023-02-28T02:00:49;17.75;;;6.38;;
56911;SDS011;42800;53.928;27.662;2023-02-28T02:03:16;12.35;;;5.95;;
56911;SDS011;42800;53.928;27.662;2023-02-28T02:05:45;18.08;;;6.85;;
56911;SDS011;42800;53.928;27.662;2023-02-28T02:08:13;18.30;;;6.70;;
56911;SDS011;42800;53.928;27.662;2023-02-28T02:10:44;16.20;;;6.97;;
56911;SDS011;42800;53.928;27.662;2023-02-28T02:16:17;16.58;;;7.25;;
56911;SDS011;42800;53.928;27.662;2023-02-28T02:18:53;13.63;;;7.10;;
56911;SDS011;42800;53.928;27.662;2023-02-28T02:21:40;13.52;;;6.43;;
56911;SDS011;42800;53.928;27.662;2023-02-28T02:24:46;12.88;;;6.38;;
56911;SDS011;42800;53.928;27.662;2023-02-28T02:27:35;13.75;;;6.90;;
56911;SDS011;42800;53.928;27.662;2023-02-28T02:33:17;13.75;;;6.85;;
56911;SDS011;42800;53.928;27.662;2023-02-28T02:35:55;15.35;;;6.68;;
56911;SDS011;42800;53.928;27.662;2023-02-28T02:38:29;14.77;;;7.05;;
56911;SDS011;42800;53.928;27.662;2023-02-28T02:41:03;12.45;;;6.35;;
56911;SDS011;42800;53.928;27.662;2023-02-28T02:43:35;14.10;;;7.10;;
56911;SDS011;42800;53.928;27.662;2023-02-28T02:46:07;16.02;;;7.45;;
56911;SDS011;42800;53.928;27.662;2023-02-28T02:48:38;16.40;;;6.97;;
56911;SDS011;42800;53.928;27.662;2023-02-28T02:51:10;15.43;;;7.38;;
56911;SDS011;42800;53.928;27.662;2023-02-28T02:53:40;15.82;;;7.53;;
56911;SDS011;42800;53.928;27.662;2023-02-28T02:56:09;14.98;;;7.45;;
56911;SDS011;42800;53.928;27.662;2023-02-28T02:58:38;15.60;;;6.55;;
56911;SDS011;42800;53.928;27.662;2023-02-28T03:01:08;17.27;;;7.82;;
56911;SDS011;42800;53.928;27.662;2023-02-28T03:03:38;16.98;;;7.25;;
56911;SDS011;42800;53.928;27.662;2023-02-28T03:06:04;14.65;;;7.25;;
56911;SDS011;42800;53.928;27.662;2023-02-28T03:08:34;16.52;;;7.47;;
56911;SDS011;42800;53.928;27.662;2023-02-28T03:11:02;23.75;;;7.95;;
56911;SDS011;42800;53.928;27.662;2023-02-28T03:13:35;20.67;;;9.50;;
56911;SDS011;42800;53.928;27.662;2023-02-28T03:16:13;14.77;;;7.63;;
56911;SDS011;42800;53.928;27.662;2023-02-28T03:18:52;14.57;;;7.30;;
56911;SDS011;42800;53.928;27.662;2023-02-28T03:21:24;17.25;;;6.60;;
56911;SDS011;42800;53.928;27.662;2023-02-28T03:24:01;15.48;;;7.25;;
56911;SDS011;42800;53.928;27.662;2023-02-28T03:26:33;16.67;;;7.70;;
56911;SDS011;42800;53.928;27.662;2023-02-28T03:29:02;14.60;;;6.93;;
56911;SDS011;42800;53.928;27.662;2023-02-28T03:31:33;18.40;;;7.78;;
56911;SDS011;42800;53.928;27.662;2023-02-28T03:34:04;16.52;;;7.93;;
56911;SDS011;42800;53.928;27.662;2023-02-28T03:36:35;18.58;;;8.32;;
56911;SDS011;42800;53.928;27.662;2023-02-28T03:41:40;23.30;;;8.32;;
56911;SDS011;42800;53.928;27.662;2023-02-28T03:44:13;19.98;;;8.60;;
56911;SDS011;42800;53.928;27.662;2023-02-28T03:46:44;18.80;;;7.82;;
56911;SDS011;42800;53.928;27.662;2023-02-28T03:49:16;17.60;;;7.32;;
56911;SDS011;42800;53.928;27.662;2023-02-28T03:51:46;17.92;;;8.02;;
56911;SDS011;42800;53.928;27.662;2023-02-28T03:54:15;24.02;;;10.30;;
56911;SDS011;42800;53.928;27.662;2023-02-28T03:56:48;17.00;;;8.23;;
56911;SDS011;42800;53.928;27.662;2023-02-28T03:59:19;15.07;;;8.00;;
56911;SDS011;42800;53.928;27.662;2023-02-28T04:01:52;19.73;;;9.20;;
56911;SDS011;42800;53.928;27.662;2023-02-28T04:04:19;23.05;;;10.05;;
56911;SDS011;42800;53.928;27.662;2023-02-28T04:06:45;29.30;;;9.60;;
56911;SDS011;42800;53.928;27.662;2023-02-28T04:09:12;14.60;;;7.35;;
56911;SDS011;42800;53.928;27.662;2023-02-28T04:11:41;20.98;;;8.95;;
56911;SDS011;42800;53.928;27.662;2023-02-28T04:14:09;23.45;;;8.82;;
56911;SDS011;42800;53.928;27.662;2023-02-28T04:16:38;18.55;;;8.98;;
56911;SDS011;42800;53.928;27.662;2023-02-28T04:19:06;18.70;;;9.45;;
56911;SDS011;42800;53.928;27.662;2023-02-28T04:21:33;17.10;;;8.65;;
56911;SDS011;42800;53.928;27.662;2023-02-28T04:24:01;26.08;;;10.80;;
56911;SDS011;42800;53.928;27.662;2023-02-28T04:26:29;21.58;;;8.50;;
56911;SDS011;42800;53.928;27.662;2023-02-28T04:28:56;21.05;;;10.18;;
56911;SDS011;42800;53.928;27.662;2023-02-28T04:31:22;20.92;;;10.43;;
56911;SDS011;42800;53.928;27.662;2023-02-28T04:33:48;21.52;;;10.60;;
56911;SDS011;42800;53.928;27.662;2023-02-28T04:36:15;23.88;;;8.68;;
56911;SDS011;42800;53.928;27.662;2023-02-28T04:38:43;27.63;;;9.27;;
56911;SDS011;42800;53.928;27.662;2023-02-28T04:41:10;26.08;;;8.88;;
56911;SDS011;42800;53.928;27.662;2023-02-28T04:43:36;20.88;;;10.27;;
56911;SDS011;42800;53.928;27.662;2023-02-28T04:46:03;25.13;;;10.95;;
56911;SDS011;42800;53.928;27.662;2023-02-28T04:48:31;31.08;;;10.68;;
56911;SDS011;42800;53.928;27.662;2023-02-28T04:51:00;22.65;;;9.63;;
56911;SDS011;42800;53.928;27.662;2023-02-28T04:53:27;26.77;;;10.00;;
56911;SDS011;42800;53.928;27.662;2023-02-28T04:55:54;23.33;;;8.80;;
56911;SDS011;42800;53.928;27.662;2023-02-28T04:58:20;18.90;;;8.30;;
56911;SDS011;42800;53.928;27.662;2023-02-28T05:00:48;32.35;;;10.43;;
56911;SDS011;42800;53.928;27.662;2023-02-28T05:03:15;24.52;;;10.55;;
56911;SDS011;42800;53.928;27.662;2023-02-28T05:05:41;29.75;;;10.80;;
56911;SDS011;42800;53.928;27.662;2023-02-28T05:08:07;28.75;;;10.23;;
56911;SDS011;42800;53.928;27.662;2023-02-28T05:10:34;20.90;;;10.10;;
56911;SDS011;42800;53.928;27.662;2023-02-28T05:13:01;21.33;;;8.52;;
56911;SDS011;42800;53.928;27.662;2023-02-28T05:15:27;21.00;;;9.95;;
56911;SDS011;42800;53.928;27.662;2023-02-28T05:17:53;21.02;;;9.70;;
56911;SDS011;42800;53.928;27.662;2023-02-28T05:20:20;29.98;;;10.20;;
56911;SDS011;42800;53.928;27.662;2023-02-28T05:22:46;21.25;;;9.73;;
56911;SDS011;42800;53.928;27.662;2023-02-28T05:25:13;18.27;;;8.80;;
56911;SDS011;42800;53.928;27.662;2023-02-28T05:27:43;19.60;;;8.57;;
56911;SDS011;42800;53.928;27.662;2023-02-28T05:30:10;20.77;;;9.82;;
56911;SDS011;42800;53.928;27.662;2023-02-28T05:32:37;22.38;;;11.05;;
56911;SDS011;42800;53.928;27.662;2023-02-28T05:35:04;25.42;;;10.65;;
56911;SDS011;42800;53.928;27.662;2023-02-28T05:37:32;21.50;;;10.15;;
56911;SDS011;42800;53.928;27.662;2023-02-28T05:39:58;23.50;;;10.25;;
56911;SDS011;42800;53.928;27.662;2023-02-28T05:42:24;19.05;;;8.45;;
56911;SDS011;42800;53.928;27.662;2023-02-28T05:44:50;23.50;;;9.32;;
56911;SDS011;42800;53.928;27.662;2023-02-28T05:47:17;18.42;;;8.63;;
56911;SDS011;42800;53.928;27.662;2023-02-28T05:49:43;17.08;;;8.25;;
56911;SDS011;42800;53.928;27.662;2023-02-28T05:52:09;20.50;;;7.82;;
56911;SDS011;42800;53.928;27.662;2023-02-28T05:54:36;16.35;;;7.70;;
56911;SDS011;42800;53.928;27.662;2023-02-28T05:57:02;13.82;;;7.82;;
56911;SDS011;42800;53.928;27.662;2023-02-28T05:59:29;13.93;;;7.85;;
56911;SDS011;42800;53.928;27.662;2023-02-28T06:01:55;11.68;;;6.28;;
56911;SDS011;42800;53.928;27.662;2023-02-28T06:04:21;10.93;;;6.57;;
56911;SDS011;42800;53.928;27.662;2023-02-28T06:06:48;10.88;;;6.32;;
56911;SDS011;42800;53.928;27.662;2023-02-28T06:09:15;11.27;;;6.22;;
56911;SDS011;42800;53.928;27.662;2023-02-28T06:11:42;14.23;;;6.07;;
56911;SDS011;42800;53.928;27.662;2023-02-28T06:14:09;10.75;;;6.35;;
56911;SDS011;42800;53.928;27.662;2023-02-28T06:16:40;12.60;;;6.63;;
56911;SDS011;42800;53.928;27.662;2023-02-28T06:19:06;11.82;;;7.05;;
56911;SDS011;42800;53.928;27.662;2023-02-28T06:21:34;15.50;;;6.75;;
56911;SDS011;42800;53.928;27.662;2023-02-28T06:24:01;9.30;;;6.00;;
56911;SDS011;42800;53.928;27.662;2023-02-28T06:26:27;14.65;;;6.72;;
56911;SDS011;42800;53.928;27.662;2023-02-28T06:28:55;13.65;;;6.28;;
56911;SDS011;42800;53.928;27.662;2023-02-28T06:31:21;12.30;;;6.60;;
56911;SDS011;42800;53.928;27.662;2023-02-28T06:33:48;16.65;;;8.10;;
56911;SDS011;42800;53.928;27.662;2023-02-28T06:36:15;15.43;;;8.07;;
56911;SDS011;42800;53.928;27.662;2023-02-28T06:38:42;14.45;;;6.05;;
56911;SDS011;42800;53.928;27.662;2023-02-28T06:41:08;10.95;;;6.20;;
56911;SDS011;42800;53.928;27.662;2023-02-28T06:43:36;12.15;;;6.88;;
56911;SDS011;42800;53.928;27.662;2023-02-28T06:46:06;15.90;;;8.05;;
56911;SDS011;42800;53.928;27.662;2023-02-28T06:48:33;11.57;;;6.45;;
56911;SDS011;42800;53.928;27.662;2023-02-28T06:51:03;17.40;;;6.20;;
56911;SDS011;42800;53.928;27.662;2023-02-28T06:53:30;13.82;;;7.03;;
56911;SDS011;42800;53.928;27.662;2023-02-28T06:55:57;13.38;;;6.63;;
56911;SDS011;42800;53.928;27.662;2023-02-28T06:58:23;13.70;;;7.75;;
56911;SDS011;42800;53.928;27.662;2023-02-28T07:00:50;13.20;;;6.97;;
56911;SDS011;42800;53.928;27.662;2023-02-28T07:03:18;19.13;;;11.68;;
56911;SDS011;42800;53.928;27.662;2023-02-28T07:05:44;11.77;;;6.50;;
56911;SDS011;42800;53.928;27.662;2023-02-28T07:08:11;10.90;;;5.97;;
56911;SDS011;42800;53.928;27.662;2023-02-28T07:10:37;13.60;;;6.38;;
56911;SDS011;42800;53.928;27.662;2023-02-28T07:13:04;10.98;;;6.50;;
56911;SDS011;42800;53.928;27.662;2023-02-28T07:15:31;9.10;;;5.72;;
56911;SDS011;42800;53.928;27.662;2023-02-28T07:17:57;9.45;;;5.68;;
56911;SDS011;42800;53.928;27.662;2023-02-28T07:20:24;9.77;;;5.65;;
56911;SDS011;42800;53.928;27.662;2023-02-28T07:22:50;11.05;;;6.43;;
56911;SDS011;42800;53.928;27.662;2023-02-28T07:25:21;13.68;;;6.70;;
56911;SDS011;42800;53.928;27.662;2023-02-28T07:27:47;13.23;;;6.60;;
56911;SDS011;42800;53.928;27.662;2023-02-28T07:30:14;14.25;;;6.90;;
56911;SDS011;42800;53.928;27.662;2023-02-28T07:32:40;13.98;;;7.65;;
56911;SDS011;42800;53.928;27.662;2023-02-28T07:35:07;11.98;;;7.13;;
56911;SDS011;42800;53.928;27.662;2023-02-28T07:37:34;15.32;;;6.93;;
56911;SDS011;42800;53.928;27.662;2023-02-28T07:40:02;12.88;;;7.10;;
56911;SDS011;42800;53.928;27.662;2023-02-28T07:42:31;13.15;;;7.20;;
56911;SDS011;42800;53.928;27.662;2023-02-28T07:44:57;12.50;;;7.13;;
56911;SDS011;42800;53.928;27.662;2023-02-28T07:47:24;13.55;;;6.72;;
56911;SDS011;42800;53.928;27.662;2023-02-28T07:49:50;11.75;;;6.07;;
56911;SDS011;42800;53.928;27.662;2023-02-28T07:52:16;10.25;;;5.97;;
56911;SDS011;42800;53.928;27.662;2023-02-28T07:54:43;10.48;;;5.63;;
56911;SDS011;42800;53.928;27.662;2023-02-28T07:57:09;11.95;;;6.80;;
56911;SDS011;42800;53.928;27.662;2023-02-28T07:59:36;13.07;;;6.75;;
56911;SDS011;42800;53.928;27.662;2023-02-28T08:02:02;15.50;;;7.35;;
56911;SDS011;42800;53.928;27.662;2023-02-28T08:04:28;12.40;;;6.43;;
56911;SDS011;42800;53.928;27.662;2023-02-28T08:06:57;14.40;;;6.10;;
56911;SDS011;42800;53.928;27.662;2023-02-28T08:09:23;11.95;;;6.82;;
56911;SDS011;42800;53.928;27.662;2023-02-28T08:11:50;11.20;;;6.85;;
56911;SDS011;42800;53.928;27.662;2023-02-28T08:14:17;10.05;;;6.50;;
56911;SDS011;42800;53.928;27.662;2023-02-28T08:16:43;11.18;;;6.20;;
56911;SDS011;42800;53.928;27.662;2023-02-28T08:19:09;14.13;;;6.65;;
56911;SDS011;42800;53.928;27.662;2023-02-28T08:21:35;13.77;;;6.72;;
56911;SDS011;42800;53.928;27.662;2023-02-28T08:24:01;18.08;;;7.13;;
56911;SDS011;42800;53.928;27.662;2023-02-28T08:26:28;10.63;;;6.22;;
56911;SDS011;42800;53.928;27.662;2023-02-28T08:28:54;14.73;;;6.65;;
56911;SDS011;42800;53.928;27.662;2023-02-28T08:31:21;13.05;;;6.65;;
56911;SDS011;42800;53.928;27.662;2023-02-28T08:33:48;12.88;;;5.78;;
56911;SDS011;42800;53.928;27.662;2023-02-28T08:36:17;11.70;;;6.00;;
56911;SDS011;42800;53.928;27.662;2023-02-28T08:38:43;11.10;;;6.30;;
56911;SDS011;42800;53.928;27.662;2023-02-28T08:41:10;11.93;;;6.05;;
56911;SDS011;42800;53.928;27.662;2023-02-28T08:43:38;11.30;;;6.22;;
56911;SDS011;42800;53.928;27.662;2023-02-28T08:46:06;10.45;;;6.32;;
56911;SDS011;42800;53.928;27.662;2023-02-28T08:48:33;12.73;;;6.28;;
56911;SDS011;42800;53.928;27.662;2023-02-28T08:51:03;13.90;;;6.68;;
56911;SDS011;42800;53.928;27.662;2023-02-28T08:53:31;14.45;;;6.05;;
56911;SDS011;42800;53.928;27.662;2023-02-28T08:55:58;13.30;;;6.00;;
56911;SDS011;42800;53.928;27.662;2023-02-28T08:58:25;11.70;;;4.95;;
56911;SDS011;42800;53.928;27.662;2023-02-28T09:00:52;9.90;;;5.93;;
56911;SDS011;42800;53.928;27.662;2023-02-28T09:03:20;11.95;;;5.20;;
56911;SDS011;42800;53.928;27.662;2023-02-28T09:05:54;11.82;;;6.65;;
56911;SDS011;42800;53.928;27.662;2023-02-28T09:08:21;8.40;;;4.45;;
56911;SDS011;42800;53.928;27.662;2023-02-28T09:10:48;7.88;;;4.40;;
56911;SDS011;42800;53.928;27.662;2023-02-28T09:13:14;10.60;;;5.55;;
56911;SDS011;42800;53.928;27.662;2023-02-28T09:15:40;9.45;;;4.70;;
56911;SDS011;42800;53.928;27.662;2023-02-28T09:18:06;9.13;;;4.80;;
56911;SDS011;42800;53.928;27.662;2023-02-28T09:20:33;6.97;;;4.35;;
56911;SDS011;42800;53.928;27.662;2023-02-28T09:23:02;12.25;;;4.78;;
56911;SDS011;42800;53.928;27.662;2023-02-28T09:25:28;11.05;;;4.85;;
56911;SDS011;42800;53.928;27.662;2023-02-28T09:27:54;4.70;;;3.67;;
56911;SDS011;42800;53.928;27.662;2023-02-28T09:30:21;7.10;;;3.92;;
56911;SDS011;42800;53.928;27.662;2023-02-28T09:32:47;9.02;;;3.53;;
56911;SDS011;42800;53.928;27.662;2023-02-28T09:35:18;6.95;;;3.60;;
56911;SDS011;42800;53.928;27.662;2023-02-28T09:37:46;5.63;;;3.55;;
56911;SDS011;42800;53.928;27.662;2023-02-28T09:40:13;6.95;;;3.53;;
56911;SDS011;42800;53.928;27.662;2023-02-28T09:42:42;8.63;;;5.00;;
56911;SDS011;42800;53.928;27.662;2023-02-28T09:45:13;10.93;;;4.93;;
56911;SDS011;42800;53.928;27.662;2023-02-28T09:47:47;8.93;;;4.20;;
56911;SDS011;42800;53.928;27.662;2023-02-28T09:50:17;8.90;;;3.90;;
56911;SDS011;42800;53.928;27.662;2023-02-28T09:52:54;6.18;;;3.63;;
56911;SDS011;42800;53.928;27.662;2023-02-28T09:55:22;6.97;;;3.95;;
56911;SDS011;42800;53.928;27.662;2023-02-28T09:57:54;6.13;;;3.50;;
56911;SDS011;42800;53.928;27.662;2023-02-28T10:00:22;5.03;;;3.65;;
56911;SDS011;42800;53.928;27.662;2023-02-28T10:03:00;11.48;;;3.53;;
56911;SDS011;42800;53.928;27.662;2023-02-28T10:05:33;5.45;;;3.42;;
56911;SDS011;42800;53.928;27.662;2023-02-28T10:08:07;4.30;;;2.70;;
56911;SDS011;42800;53.928;27.662;2023-02-28T10:10:40;8.00;;;3.47;;
56911;SDS011;42800;53.928;27.662;2023-02-28T10:13:12;7.85;;;3.45;;
56911;SDS011;42800;53.928;27.662;2023-02-28T10:15:43;4.68;;;2.97;;
56911;SDS011;42800;53.928;27.662;2023-02-28T10:18:13;5.57;;;3.10;;
56911;SDS011;42800;53.928;27.662;2023-02-28T10:20:44;5.20;;;3.53;;
56911;SDS011;42800;53.928;27.662;2023-02-28T10:23:13;6.93;;;3.13;;
56911;SDS011;42800;53.928;27.662;2023-02-28T10:25:46;3.57;;;2.63;;
56911;SDS011;42800;53.928;27.662;2023-02-28T10:28:19;4.93;;;2.90;;
56911;SDS011;42800;53.928;27.662;2023-02-28T10:30:46;4.80;;;2.80;;
56911;SDS011;42800;53.928;27.662;2023-02-28T10:33:18;4.25;;;2.90;;
56911;SDS011;42800;53.928;27.662;2023-02-28T10:35:47;4.23;;;2.07;;
56911;SDS011;42800;53.928;27.662;2023-02-28T10:38:16;4.70;;;3.13;;
56911;SDS011;42800;53.928;27.662;2023-02-28T10:40:44;4.55;;;2.00;;
56911;SDS011;42800;53.928;27.662;2023-02-28T10:43:18;5.45;;;2.65;;
56911;SDS011;42800;53.928;27.662;2023-02-28T10:45:54;4.18;;;2.70;;
56911;SDS011;42800;53.928;27.662;2023-02-28T10:48:26;5.78;;;2.67;;
56911;SDS011;42800;53.928;27.662;2023-02-28T10:50:55;3.20;;;2.53;;
56911;SDS011;42800;53.928;27.662;2023-02-28T10:53:28;3.28;;;2.40;;
56911;SDS011;42800;53.928;27.662;2023-02-28T10:55:58;7.30;;;2.83;;
56911;SDS011;42800;53.928;27.662;2023-02-28T10:58:27;4.18;;;2.35;;
56911;SDS011;42800;53.928;27.662;2023-02-28T11:00:55;4.32;;;2.65;;
56911;SDS011;42800;53.928;27.662;2023-02-28T11:03:23;7.07;;;2.63;;
56911;SDS011;42800;53.928;27.662;2023-02-28T11:05:51;4.78;;;2.70;;
56911;SDS011;42800;53.928;27.662;2023-02-28T11:08:17;5.88;;;2.88;;
56911;SDS011;42800;53.928;27.662;2023-02-28T11:10:45;5.30;;;2.90;;
56911;SDS011;42800;53.928;27.662;2023-02-28T11:13:16;4.03;;;2.75;;
56911;SDS011;42800;53.928;27.662;2023-02-28T11:15:49;5.88;;;3.33;;
56911;SDS011;42800;53.928;27.662;2023-02-28T11:18:24;4.55;;;2.45;;
56911;SDS011;42800;53.928;27.662;2023-02-28T11:20:55;2.55;;;2.33;;
56911;SDS011;42800;53.928;27.662;2023-02-28T11:23:24;4.95;;;2.95;;
56911;SDS011;42800;53.928;27.662;2023-02-28T11:25:54;4.10;;;3.05;;
56911;SDS011;42800;53.928;27.662;2023-02-28T11:28:24;2.83;;;2.20;;
56911;SDS011;42800;53.928;27.662;2023-02-28T11:31:00;6.25;;;2.83;;
56911;SDS011;42800;53.928;27.662;2023-02-28T11:33:29;3.50;;;2.70;;
56911;SDS011;42800;53.928;27.662;2023-02-28T11:35:58;8.38;;;3.17;;
56911;SDS011;42800;53.928;27.662;2023-02-28T11:38:28;4.18;;;3.30;;
56911;SDS011;42800;53.928;27.662;2023-02-28T11:43:59;8.65;;;3.50;;
56911;SDS011;42800;53.928;27.662;2023-02-28T11:46:33;6.18;;;3.28;;
56911;SDS011;42800;53.928;27.662;2023-02-28T11:49:10;11.32;;;3.38;;
56911;SDS011;42800;53.928;27.662;2023-02-28T11:51:48;4.45;;;2.70;;
56911;SDS011;42800;53.928;27.662;2023-02-28T11:54:31;4.55;;;3.03;;
56911;SDS011;42800;53.928;27.662;2023-02-28T11:57:15;6.55;;;3.70;;
56911;SDS011;42800;53.928;27.662;2023-02-28T11:59:56;6.45;;;2.60;;
56911;SDS011;42800;53.928;27.662;2023-02-28T12:02:35;7.35;;;2.90;;
56911;SDS011;42800;53.928;27.662;2023-02-28T12:05:20;6.28;;;3.03;;
56911;SDS011;42800;53.928;27.662;2023-02-28T12:07:57;4.60;;;2.78;;
56911;SDS011;42800;53.928;27.662;2023-02-28T12:10:30;5.53;;;3.08;;
56911;SDS011;42800;53.928;27.662;2023-02-28T12:13:06;3.40;;;2.17;;
56911;SDS011;42800;53.928;27.662;2023-02-28T12:18:56;5.82;;;3.40;;
56911;SDS011;42800;53.928;27.662;2023-02-28T12:21:35;5.75;;;3.45;;
56911;SDS011;42800;53.928;27.662;2023-02-28T12:24:21;9.32;;;3.40;;
56911;SDS011;42800;53.928;27.662;2023-02-28T12:27:05;9.05;;;2.95;;
56911;SDS011;42800;53.928;27.662;2023-02-28T12:29:39;8.77;;;3.90;;
56911;SDS011;42800;53.928;27.662;2023-02-28T12:32:12;5.00;;;3.00;;
56911;SDS011;42800;53.928;27.662;2023-02-28T12:34:45;8.73;;;3.67;;
56911;SDS011;42800;53.928;27.662;2023-02-28T12:37:17;5.70;;;3.28;;
56911;SDS011;42800;53.928;27.662;2023-02-28T12:39:49;6.03;;;3.45;;
56911;SDS011;42800;53.928;27.662;2023-02-28T12:42:22;6.22;;;3.17;;
56911;SDS011;42800;53.928;27.662;2023-02-28T12:44:56;31.52;;;3.92;;
56911;SDS011;42800;53.928;27.662;2023-02-28T12:47:25;7.50;;;3.38;;
56911;SDS011;42800;53.928;27.662;2023-02-28T12:49:52;6.15;;;2.85;;
56911;SDS011;42800;53.928;27.662;2023-02-28T12:52:24;19.75;;;4.03;;
56911;SDS011;42800;53.928;27.662;2023-02-28T12:54:58;3.80;;;2.90;;
56911;SDS011;42800;53.928;27.662;2023-02-28T12:57:32;5.47;;;2.53;;
56911;SDS011;42800;53.928;27.662;2023-02-28T13:00:08;8.00;;;4.05;;
56911;SDS011;42800;53.928;27.662;2023-02-28T13:02:50;7.63;;;3.85;;
56911;SDS011;42800;53.928;27.662;2023-02-28T13:05:32;9.88;;;3.28;;
56911;SDS011;42800;53.928;27.662;2023-02-28T13:08:22;5.63;;;2.90;;
56911;SDS011;42800;53.928;27.662;2023-02-28T13:11:02;7.60;;;2.90;;
56911;SDS011;42800;53.928;27.662;2023-02-28T13:13:29;5.40;;;3.63;;
56911;SDS011;42800;53.928;27.662;2023-02-28T13:16:01;4.03;;;3.03;;
56911;SDS011;42800;53.928;27.662;2023-02-28T13:18:32;5.57;;;3.08;;
56911;SDS011;42800;53.928;27.662;2023-02-28T13:21:02;7.25;;;3.17;;
56911;SDS011;42800;53.928;27.662;2023-02-28T13:23:36;6.22;;;2.67;;
56911;SDS011;42800;53.928;27.662;2023-02-28T13:26:06;8.15;;;3.55;;
56911;SDS011;42800;53.928;27.662;2023-02-28T13:38:16;5.50;;;2.63;;
56911;SDS011;42800;53.928;27.662;2023-02-28T13:44:07;6.60;;;3.13;;
56911;SDS011;42800;53.928;27.662;2023-02-28T13:46:36;4.95;;;2.70;;
56911;SDS011;42800;53.928;27.662;2023-02-28T13:49:24;6.95;;;2.95;;
56911;SDS011;42800;53.928;27.662;2023-02-28T13:51:53;5.45;;;2.80;;
56911;SDS011;42800;53.928;27.662;2023-02-28T13:54:31;6.15;;;3.03;;
56911;SDS011;42800;53.928;27.662;2023-02-28T13:57:11;8.85;;;4.00;;
56911;SDS011;42800;53.928;27.662;2023-02-28T13:59:50;6.63;;;3.30;;
56911;SDS011;42800;53.928;27.662;2023-02-28T14:02:37;6.18;;;2.85;;
56911;SDS011;42800;53.928;27.662;2023-02-28T14:05:13;6.57;;;2.85;;
56911;SDS011;42800;53.928;27.662;2023-02-28T14:07:43;6.65;;;2.20;;
56911;SDS011;42800;53.928;27.662;2023-02-28T14:10:20;6.88;;;3.28;;
56911;SDS011;42800;53.928;27.662;2023-02-28T14:12:54;3.80;;;2.53;;
56911;SDS011;42800;53.928;27.662;2023-02-28T14:15:40;5.03;;;2.90;;
56911;SDS011;42800;53.928;27.662;2023-02-28T14:18:14;5.88;;;2.33;;
56911;SDS011;42800;53.928;27.662;2023-02-28T14:20:45;3.75;;;2.08;;
56911;SDS011;42800;53.928;27.662;2023-02-28T14:23:15;25.00;;;12.32;;
56911;SDS011;42800;53.928;27.662;2023-02-28T14:25:54;4.65;;;2.90;;
56911;SDS011;42800;53.928;27.662;2023-02-28T14:28:36;3.83;;;2.20;;
56911;SDS011;42800;53.928;27.662;2023-02-28T14:31:11;4.20;;;2.30;;
56911;SDS011;42800;53.928;27.662;2023-02-28T14:33:54;3.80;;;2.38;;
56911;SDS011;42800;53.928;27.662;2023-02-28T14:36:31;7.00;;;2.58;;
56911;SDS011;42800;53.928;27.662;2023-02-28T14:39:01;7.22;;;2.60;;
56911;SDS011;42800;53.928;27.662;2023-02-28T14:41:33;8.55;;;2.40;;
56911;SDS011;42800;53.928;27.662;2023-02-28T14:44:03;5.38;;;2.55;;
56911;SDS011;42800;53.928;27.662;2023-02-28T14:46:39;3.92;;;2.03;;
56911;SDS011;42800;53.928;27.662;2023-02-28T14:49:11;3.40;;;1.67;;
56911;SDS011;42800;53.928;27.662;2023-02-28T14:51:41;9.68;;;2.22;;
56911;SDS011;42800;53.928;27.662;2023-02-28T14:54:12;2.78;;;2.13;;
56911;SDS011;42800;53.928;27.662;2023-02-28T14:56:41;6.10;;;2.00;;
56911;SDS011;42800;53.928;27.662;2023-02-28T14:59:22;3.92;;;2.20;;
56911;SDS011;42800;53.928;27.662;2023-02-28T15:01:50;4.88;;;3.20;;
56911;SDS011;42800;53.928;27.662;2023-02-28T15:04:25;5.57;;;2.28;;
56911;SDS011;42800;53.928;27.662;2023-02-28T15:07:08;11.15;;;2.15;;
56911;SDS011;42800;53.928;27.662;2023-02-28T15:09:34;3.75;;;2.47;;